createdAt,value
2022-11-21T00:00:32.582Z,17.90
2022-11-21T00:03:01.463Z,17.73
2022-11-21T00:05:29.583Z,17.70
2022-11-21T00:07:57.043Z,17.67
2022-11-21T00:10:25.902Z,17.13
2022-11-21T00:12:56.262Z,17.33
2022-11-21T00:15:24.362Z,17.63
2022-11-21T00:17:51.747Z,17.77
2022-11-21T00:20:20.391Z,18.13
2022-11-21T00:22:47.060Z,18.77
2022-11-21T00:25:13.783Z,20.03
2022-11-21T00:27:40.701Z,19.83
2022-11-21T00:30:09.424Z,22.17
2022-11-21T00:32:36.049Z,20.13
2022-11-21T00:35:02.957Z,20.40
2022-11-21T00:37:29.544Z,20.70
2022-11-21T00:39:56.060Z,20.73
2022-11-21T00:42:22.906Z,20.17
2022-11-21T00:44:49.666Z,21.00
2022-11-21T00:47:16.450Z,20.93
2022-11-21T00:49:43.057Z,20.30
2022-11-21T00:52:09.591Z,21.97
2022-11-21T00:54:36.100Z,22.50
2022-11-21T00:57:02.779Z,23.07
2022-11-21T00:59:29.364Z,23.17
2022-11-21T01:01:55.913Z,21.60
2022-11-21T01:04:22.500Z,24.03
2022-11-21T01:06:49.042Z,22.90
2022-11-21T01:09:15.566Z,22.20
2022-11-21T01:11:42.065Z,22.47
2022-11-21T01:14:08.655Z,22.87
2022-11-21T01:16:35.412Z,22.97
2022-11-21T01:19:01.998Z,21.87
2022-11-21T01:21:31.823Z,20.67
2022-11-21T01:24:02.829Z,20.83
2022-11-21T01:26:33.039Z,20.63
2022-11-21T01:28:59.932Z,20.20
2022-11-21T01:31:28.816Z,21.67
2022-11-21T01:33:57.584Z,20.47
2022-11-21T01:36:32.679Z,20.30
2022-11-21T01:39:03.261Z,19.70
2022-11-21T01:41:33.691Z,18.30
2022-11-21T01:44:01.817Z,17.70
2022-11-21T01:46:28.751Z,18.23
2022-11-21T01:49:11.256Z,18.40
2022-11-21T01:51:50.480Z,18.53
2022-11-21T01:54:24.514Z,17.30
2022-11-21T01:57:06.361Z,16.30
2022-11-21T01:59:41.535Z,16.13
2022-11-21T02:02:12.122Z,16.43
2022-11-21T02:04:42.959Z,17.57
2022-11-21T02:07:11.992Z,16.30
2022-11-21T02:09:41.327Z,15.73
2022-11-21T02:12:18.374Z,15.77
2022-11-21T02:14:45.076Z,15.70
2022-11-21T02:17:11.617Z,16.20
2022-11-21T02:19:59.192Z,16.33
2022-11-21T02:22:54.957Z,15.53
2022-11-21T02:25:27.707Z,14.73
2022-11-21T02:27:59.507Z,15.77
2022-11-21T02:30:27.929Z,14.53
2022-11-21T02:32:55.708Z,14.50
2022-11-21T02:35:22.375Z,13.90
2022-11-21T02:37:57.720Z,14.60
2022-11-21T02:40:31.632Z,14.60
2022-11-21T02:43:19.785Z,15.07
2022-11-21T02:45:46.943Z,15.57
2022-11-21T02:48:14.385Z,15.10
2022-11-21T02:50:45.263Z,15.37
2022-11-21T02:53:14.546Z,15.57
2022-11-21T02:55:41.573Z,15.23
2022-11-21T02:58:08.139Z,15.00
2022-11-21T03:00:36.440Z,15.37
2022-11-21T03:03:03.371Z,15.90
2022-11-21T03:05:30.199Z,16.30
2022-11-21T03:07:57.048Z,15.77
2022-11-21T03:10:23.599Z,16.33
2022-11-21T03:12:50.103Z,16.60
2022-11-21T03:15:17.027Z,16.83
2022-11-21T03:17:43.769Z,17.27
2022-11-21T03:20:11.005Z,17.07
2022-11-21T03:22:37.617Z,17.03
2022-11-21T03:25:04.445Z,16.27
2022-11-21T03:27:30.995Z,16.13
2022-11-21T03:29:57.534Z,15.43
2022-11-21T03:32:24.036Z,15.80
2022-11-21T03:34:50.575Z,14.70
2022-11-21T03:37:17.174Z,14.93
2022-11-21T03:39:43.940Z,14.97
2022-11-21T03:42:10.589Z,15.10
2022-11-21T03:44:37.161Z,14.50
2022-11-21T03:47:03.747Z,15.73
2022-11-21T03:49:30.287Z,15.00
2022-11-21T03:51:56.821Z,14.47
2022-11-21T03:54:23.358Z,14.77
2022-11-21T03:56:49.874Z,13.70
2022-11-21T03:59:16.549Z,13.43
2022-11-21T04:01:43.180Z,12.93
2022-11-21T04:04:10.227Z,13.50
2022-11-21T04:06:36.708Z,13.17
2022-11-21T04:09:03.483Z,14.07
2022-11-21T04:11:30.079Z,13.93
2022-11-21T04:13:56.574Z,13.50
2022-11-21T04:16:23.104Z,14.00
2022-11-21T04:18:49.640Z,13.83
2022-11-21T04:21:16.262Z,13.00
2022-11-21T04:23:42.764Z,13.47
2022-11-21T04:26:09.556Z,13.40
2022-11-21T04:28:36.107Z,13.13
2022-11-21T04:31:10.823Z,13.10
2022-11-21T04:33:39.456Z,13.43
2022-11-21T04:36:08.292Z,13.40
2022-11-21T04:38:34.968Z,13.93
2022-11-21T04:41:01.486Z,13.73
2022-11-21T04:43:28.020Z,13.67
2022-11-21T04:45:54.559Z,13.83
2022-11-21T04:48:21.169Z,14.23
2022-11-21T04:50:47.760Z,14.00
2022-11-21T04:53:14.390Z,13.87
2022-11-21T04:55:40.925Z,13.93
2022-11-21T04:58:07.825Z,15.27
2022-11-21T05:00:34.851Z,13.50
2022-11-21T05:03:03.826Z,14.13
2022-11-21T05:05:30.738Z,14.00
2022-11-21T05:07:57.541Z,13.90
2022-11-21T05:10:24.279Z,13.37
2022-11-21T05:13:19.601Z,13.73
2022-11-21T05:15:46.533Z,12.73
2022-11-21T05:18:13.159Z,12.90
2022-11-21T05:20:39.774Z,13.30
2022-11-21T05:23:06.539Z,12.60
2022-11-21T05:25:33.150Z,13.00
2022-11-21T05:27:59.649Z,13.33
2022-11-21T05:30:26.379Z,13.10
2022-11-21T05:32:53.311Z,14.10
2022-11-21T05:35:19.845Z,13.47
2022-11-21T05:37:46.415Z,13.57
2022-11-21T05:40:12.950Z,13.80
2022-11-21T05:42:59.452Z,14.90
2022-11-21T05:45:26.066Z,15.73
2022-11-21T05:47:52.742Z,16.30
2022-11-21T05:50:19.502Z,17.00
2022-11-21T05:52:46.128Z,14.97
2022-11-21T05:55:12.715Z,16.87
2022-11-21T05:57:39.218Z,17.10
2022-11-21T06:00:06.489Z,16.17
2022-11-21T06:02:51.491Z,17.20
2022-11-21T06:05:18.267Z,16.40
2022-11-21T06:07:44.815Z,17.87
2022-11-21T06:10:11.539Z,17.27
2022-11-21T06:12:38.074Z,17.87
2022-11-21T06:15:04.766Z,16.97
2022-11-21T06:17:31.320Z,17.60
2022-11-21T06:19:57.942Z,16.67
2022-11-21T06:22:24.452Z,17.33
2022-11-21T06:24:51.019Z,17.73
2022-11-21T06:27:17.556Z,17.87
2022-11-21T06:29:44.183Z,17.13
2022-11-21T06:32:11.176Z,17.83
2022-11-21T06:34:37.937Z,17.47
2022-11-21T06:37:04.546Z,17.40
2022-11-21T06:39:31.064Z,16.97
2022-11-21T06:41:57.639Z,17.70
2022-11-21T06:44:24.168Z,18.17
2022-11-21T06:46:51.648Z,17.73
2022-11-21T06:49:18.857Z,18.50
2022-11-21T06:51:45.380Z,18.33
2022-11-21T06:54:16.506Z,18.73
2022-11-21T06:56:43.511Z,19.40
2022-11-21T06:59:10.074Z,18.90
2022-11-21T07:01:36.673Z,18.90
2022-11-21T07:04:03.279Z,19.33
2022-11-21T07:06:29.785Z,18.77
2022-11-21T07:09:25.500Z,18.47
2022-11-21T07:11:43.148Z,19.90
2022-11-21T07:14:09.969Z,18.00
2022-11-21T07:16:36.827Z,18.30
2022-11-21T07:19:03.472Z,19.30
2022-11-21T07:21:30.053Z,18.53
2022-11-21T07:23:56.599Z,19.33
2022-11-21T07:26:23.161Z,19.47
2022-11-21T07:28:49.694Z,18.80
2022-11-21T07:31:16.603Z,18.53
2022-11-21T07:33:43.819Z,18.97
2022-11-21T07:36:11.652Z,18.33
2022-11-21T07:38:38.276Z,19.07
2022-11-21T07:41:04.802Z,19.33
2022-11-21T07:43:31.310Z,19.13
2022-11-21T07:45:57.864Z,17.93
2022-11-21T07:48:24.404Z,18.40
2022-11-21T07:50:50.986Z,18.17
2022-11-21T07:53:17.587Z,19.73
2022-11-21T07:55:44.219Z,18.73
2022-11-21T07:58:13.116Z,19.83
2022-11-21T08:00:42.763Z,18.40
2022-11-21T08:03:12.066Z,18.80
2022-11-21T08:05:43.879Z,18.53
2022-11-21T08:08:12.196Z,18.53
2022-11-21T08:10:43.767Z,18.83
2022-11-21T08:13:11.109Z,19.67
2022-11-21T08:15:38.028Z,19.83
2022-11-21T08:18:15.873Z,19.43
2022-11-21T08:20:42.953Z,19.63
2022-11-21T08:23:10.909Z,19.60
2022-11-21T08:25:38.756Z,20.07
2022-11-21T08:28:06.546Z,20.60
2022-11-21T08:30:34.212Z,20.47
2022-11-21T08:33:01.526Z,20.87
2022-11-21T08:35:28.826Z,20.57
2022-11-21T08:37:57.239Z,19.97
2022-11-21T08:40:24.994Z,19.43
2022-11-21T08:43:02.980Z,20.53
2022-11-21T08:45:29.804Z,20.17
2022-11-21T08:47:56.685Z,20.27
2022-11-21T08:50:23.994Z,20.87
2022-11-21T08:52:50.983Z,20.27
2022-11-21T08:55:17.509Z,21.40
2022-11-21T08:57:44.076Z,20.67
2022-11-21T09:00:14.871Z,20.47
2022-11-21T09:02:41.496Z,21.67
2022-11-21T09:05:09.024Z,20.53
2022-11-21T09:07:36.285Z,20.03
2022-11-21T09:10:03.303Z,20.80
2022-11-21T09:12:31.373Z,20.33
2022-11-21T09:15:16.257Z,21.47
2022-11-21T09:18:01.401Z,22.33
2022-11-21T09:20:27.941Z,21.20
2022-11-21T09:22:54.636Z,22.27
2022-11-21T09:25:21.153Z,21.70
2022-11-21T09:27:47.731Z,22.43
2022-11-21T09:30:15.988Z,22.13
2022-11-21T09:32:42.546Z,22.20
2022-11-21T09:35:09.293Z,22.87
2022-11-21T09:37:38.673Z,22.60
2022-11-21T09:40:08.649Z,22.43
2022-11-21T09:43:02.550Z,24.57
2022-11-21T09:45:46.425Z,23.17
2022-11-21T09:48:17.687Z,22.63
2022-11-21T09:50:53.926Z,22.63
2022-11-21T09:53:26.896Z,24.00
2022-11-21T09:55:58.972Z,24.23
2022-11-21T09:58:37.578Z,23.67
2022-11-21T10:01:04.478Z,22.53
2022-11-21T10:03:41.114Z,23.30
2022-11-21T10:06:22.708Z,25.03
2022-11-21T10:08:55.252Z,23.73
2022-11-21T10:11:26.587Z,24.03
2022-11-21T10:14:30.020Z,23.10
2022-11-21T10:17:13.697Z,22.90
2022-11-21T10:20:03.151Z,24.83
2022-11-21T10:22:45.111Z,24.47
2022-11-21T10:25:17.288Z,22.80
2022-11-21T10:27:52.849Z,24.00
2022-11-21T10:30:21.045Z,24.30
2022-11-21T10:32:54.835Z,26.43
2022-11-21T10:35:23.216Z,25.63
2022-11-21T10:37:56.121Z,25.77
2022-11-21T10:40:47.639Z,25.43
2022-11-21T10:43:38.904Z,26.90
2022-11-21T10:46:05.488Z,26.63
2022-11-21T10:48:33.155Z,25.77
2022-11-21T10:51:33.419Z,26.93
2022-11-21T10:54:24.101Z,26.17
2022-11-21T10:56:53.841Z,26.27
2022-11-21T10:59:30.082Z,25.57
2022-11-21T11:02:02.436Z,25.47
2022-11-21T11:04:36.877Z,25.83
2022-11-21T11:07:28.913Z,26.17
2022-11-21T11:10:27.658Z,26.70
2022-11-21T11:13:38.706Z,24.67
2022-11-21T11:16:09.858Z,25.67
2022-11-21T11:18:47.217Z,26.80
2022-11-21T11:21:16.921Z,24.10
2022-11-21T11:23:44.171Z,24.33
2022-11-21T11:26:49.535Z,25.17
2022-11-21T11:29:25.173Z,24.30
2022-11-21T11:32:19.405Z,24.23
2022-11-21T11:34:58.462Z,24.03
2022-11-21T11:37:42.417Z,23.83
2022-11-21T11:40:24.145Z,23.80
2022-11-21T11:43:16.039Z,22.30
2022-11-21T11:46:30.364Z,22.77
2022-11-21T11:49:21.842Z,21.23
2022-11-21T11:51:55.230Z,20.83
2022-11-21T11:54:33.199Z,21.37
2022-11-21T11:56:59.903Z,19.43
2022-11-21T11:59:34.049Z,18.70
2022-11-21T12:02:16.731Z,19.17
2022-11-21T12:04:51.028Z,17.83
2022-11-21T12:10:26.501Z,17.73
2022-11-21T12:13:02.452Z,16.20
2022-11-21T12:15:51.069Z,16.53
2022-11-21T12:18:23.122Z,15.07
2022-11-21T12:21:07.720Z,15.00
2022-11-21T12:23:47.300Z,14.93
2022-11-21T12:26:38.286Z,14.17
2022-11-21T12:29:32.888Z,15.00
2022-11-21T12:32:25.554Z,15.30
2022-11-21T12:34:52.099Z,14.27
2022-11-21T12:37:48.079Z,13.70
2022-11-21T12:40:35.274Z,14.23
2022-11-21T12:43:33.821Z,13.60
2022-11-21T12:46:10.680Z,14.47
2022-11-21T12:49:15.977Z,16.23
2022-11-21T12:52:46.969Z,14.60
2022-11-21T12:55:37.605Z,14.60
2022-11-21T12:58:17.664Z,14.10
2022-11-21T13:00:56.158Z,14.63
2022-11-21T13:03:51.156Z,14.07
2022-11-21T13:06:27.062Z,14.23
2022-11-21T13:08:55.969Z,14.33
2022-11-21T13:12:00.728Z,14.20
2022-11-21T13:14:44.872Z,14.83
2022-11-21T13:17:11.319Z,15.27
2022-11-21T13:19:43.883Z,15.17
2022-11-21T13:22:38.044Z,14.17
2022-11-21T13:25:14.833Z,14.80
2022-11-21T13:27:42.227Z,15.47
2022-11-21T13:30:09.037Z,15.13
2022-11-21T13:32:50.731Z,15.80
2022-11-21T13:35:20.064Z,14.17
2022-11-21T13:37:49.296Z,14.20
2022-11-21T13:40:28.099Z,14.43
2022-11-21T13:43:31.966Z,15.10
2022-11-21T13:45:58.914Z,14.37
2022-11-21T13:48:56.983Z,14.77
2022-11-21T13:51:51.042Z,13.47
2022-11-21T13:54:23.585Z,14.20
2022-11-21T13:57:12.608Z,14.23
2022-11-21T13:59:51.936Z,14.27
2022-11-21T14:02:37.943Z,13.77
2022-11-21T14:05:24.059Z,13.20
2022-11-21T14:07:51.104Z,13.67
2022-11-21T14:10:35.984Z,13.30
2022-11-21T14:13:04.042Z,12.20
2022-11-21T14:15:59.638Z,13.10
2022-11-21T14:18:26.974Z,13.10
2022-11-21T14:20:57.465Z,12.93
2022-11-21T14:23:26.410Z,13.10
2022-11-21T14:25:57.474Z,13.07
2022-11-21T14:28:29.832Z,12.43
2022-11-21T14:31:02.125Z,12.20
2022-11-21T14:33:34.102Z,12.00
2022-11-21T14:36:06.597Z,11.87
2022-11-21T14:38:40.618Z,12.50
2022-11-21T14:41:25.680Z,12.00
2022-11-21T14:43:58.051Z,11.63
2022-11-21T14:46:45.533Z,11.93
2022-11-21T14:49:15.651Z,11.90
2022-11-21T14:51:44.353Z,12.63
2022-11-21T14:54:16.392Z,12.07
2022-11-21T14:56:44.053Z,11.97
2022-11-21T14:59:22.467Z,12.73
2022-11-21T15:01:59.430Z,11.73
2022-11-21T15:04:29.848Z,12.47
2022-11-21T15:06:57.922Z,12.33
2022-11-21T15:12:14.116Z,12.60
2022-11-21T15:14:48.593Z,11.93
2022-11-21T15:17:20.710Z,11.63
2022-11-21T15:20:04.741Z,12.77
2022-11-21T15:22:37.751Z,10.90
2022-11-21T15:25:19.703Z,11.30
2022-11-21T15:27:49.593Z,11.90
2022-11-21T15:30:19.197Z,12.10
2022-11-21T15:33:04.027Z,10.17
2022-11-21T15:35:36.190Z,11.17
2022-11-21T15:38:02.748Z,11.37
2022-11-21T15:40:29.419Z,11.37
2022-11-21T15:42:55.975Z,11.57
2022-11-21T15:45:26.392Z,11.67
2022-11-21T15:47:53.279Z,11.03
2022-11-21T15:50:23.718Z,10.67
2022-11-21T15:52:51.858Z,10.93
2022-11-21T15:55:21.951Z,11.37
2022-11-21T15:57:48.765Z,11.27
2022-11-21T16:00:15.977Z,11.43
2022-11-21T16:02:42.503Z,10.53
2022-11-21T16:05:15.869Z,10.80
2022-11-21T16:07:42.501Z,10.97
2022-11-21T16:10:18.236Z,11.20
2022-11-21T16:12:48.483Z,10.73
2022-11-21T16:15:15.239Z,10.63
2022-11-21T16:17:41.872Z,11.03
2022-11-21T16:20:08.925Z,9.93
2022-11-21T16:22:35.416Z,10.27
2022-11-21T16:25:01.988Z,10.30
2022-11-21T16:27:47.384Z,9.90
2022-11-21T16:30:14.648Z,9.97
2022-11-21T16:32:41.158Z,9.80
2022-11-21T16:35:08.138Z,9.43
2022-11-21T16:37:34.702Z,10.37
2022-11-21T16:40:01.250Z,10.60
2022-11-21T16:42:27.750Z,10.30
2022-11-21T16:44:54.280Z,9.97
2022-11-21T16:47:20.804Z,10.77
2022-11-21T16:49:48.644Z,10.33
2022-11-21T16:52:16.015Z,10.50
2022-11-21T16:54:42.617Z,11.07
2022-11-21T16:57:09.509Z,10.57
2022-11-21T16:59:36.175Z,11.67
2022-11-21T17:02:02.733Z,10.50
2022-11-21T17:04:29.312Z,11.10
2022-11-21T17:06:55.885Z,10.37
2022-11-21T17:09:22.452Z,10.27
2022-11-21T17:11:48.978Z,10.53
2022-11-21T17:14:15.569Z,9.50
2022-11-21T17:16:42.143Z,9.97
2022-11-21T17:19:11.627Z,9.67
2022-11-21T17:21:38.310Z,9.53
2022-11-21T17:24:05.013Z,9.67
2022-11-21T17:26:31.610Z,9.63
2022-11-21T17:29:00.490Z,8.97
2022-11-21T17:31:27.880Z,8.73
2022-11-21T17:33:56.648Z,9.03
2022-11-21T17:36:25.062Z,9.50
2022-11-21T17:38:52.240Z,9.63
2022-11-21T17:41:20.516Z,9.77
2022-11-21T17:43:48.332Z,10.43
2022-11-21T17:46:17.464Z,9.20
2022-11-21T17:48:49.817Z,9.20
2022-11-21T17:51:28.922Z,9.10
2022-11-21T17:53:56.000Z,9.87
2022-11-21T17:56:24.826Z,9.70
2022-11-21T17:58:51.862Z,9.23
2022-11-21T18:01:21.998Z,10.23
2022-11-21T18:03:54.476Z,10.57
2022-11-21T18:06:21.031Z,10.00
2022-11-21T18:08:49.295Z,10.33
2022-11-21T18:11:21.059Z,10.30
2022-11-21T18:13:48.720Z,11.10
2022-11-21T18:16:23.608Z,11.33
2022-11-21T18:18:50.968Z,10.70
2022-11-21T18:21:24.502Z,11.43
2022-11-21T18:23:53.463Z,11.50
2022-11-21T18:26:27.016Z,12.10
2022-11-21T18:29:20.732Z,12.10
2022-11-21T18:31:46.228Z,10.17
2022-11-21T18:34:12.864Z,11.37
2022-11-21T18:36:39.489Z,11.47
2022-11-21T18:39:13.632Z,11.67
2022-11-21T18:41:42.152Z,11.80
2022-11-21T18:44:08.995Z,11.73
2022-11-21T18:46:36.968Z,12.10
2022-11-21T18:49:06.939Z,12.90
2022-11-21T18:51:35.748Z,13.50
2022-11-21T18:54:08.355Z,12.73
2022-11-21T18:56:35.980Z,13.57
2022-11-21T18:59:03.974Z,14.30
2022-11-21T19:01:31.868Z,13.37
2022-11-21T19:03:59.005Z,12.93
2022-11-21T19:06:27.340Z,13.50
2022-11-21T19:08:55.907Z,13.73
2022-11-21T19:11:24.904Z,13.20
2022-11-21T19:13:53.356Z,13.97
2022-11-21T19:16:21.933Z,14.30
2022-11-21T19:19:11.567Z,13.97
2022-11-21T19:21:37.839Z,14.80
2022-11-21T19:24:06.725Z,15.17
2022-11-21T19:26:33.740Z,14.60
2022-11-21T19:29:00.310Z,16.20
2022-11-21T19:31:26.970Z,15.87
2022-11-21T19:33:53.526Z,17.10
2022-11-21T19:36:22.239Z,16.80
2022-11-21T19:38:51.224Z,16.00
2022-11-21T19:41:21.120Z,15.70
2022-11-21T19:43:53.224Z,16.57
2022-11-21T19:46:22.595Z,16.37
2022-11-21T19:48:54.301Z,17.63
2022-11-21T19:51:23.194Z,17.30
2022-11-21T19:53:49.900Z,18.03
2022-11-21T19:56:17.720Z,18.50
2022-11-21T19:58:44.637Z,18.50
2022-11-21T20:01:14.418Z,19.30
2022-11-21T20:03:43.748Z,19.17
2022-11-21T20:06:19.712Z,19.37
2022-11-21T20:08:57.331Z,19.13
2022-11-21T20:11:26.106Z,19.67
2022-11-21T20:13:55.583Z,19.97
2022-11-21T20:16:30.622Z,20.90
2022-11-21T20:19:00.208Z,21.27
2022-11-21T20:21:27.339Z,21.80
2022-11-21T20:23:54.298Z,21.43
2022-11-21T20:26:22.284Z,20.77
2022-11-21T20:28:49.830Z,22.23
2022-11-21T20:31:18.803Z,22.17
2022-11-21T20:33:50.544Z,22.00
2022-11-21T20:36:20.250Z,21.87
2022-11-21T20:38:54.364Z,22.57
2022-11-21T20:41:27.686Z,21.73
2022-11-21T20:44:53.124Z,21.60
2022-11-21T20:46:43.018Z,19.43
2022-11-21T20:49:10.262Z,21.43
2022-11-21T20:54:23.565Z,20.97
2022-11-21T20:56:50.737Z,19.97
2022-11-21T20:59:17.719Z,19.60
2022-11-21T21:01:46.860Z,19.43
2022-11-21T21:04:14.035Z,19.53
2022-11-21T21:06:40.950Z,20.80
2022-11-21T21:09:07.462Z,21.03
2022-11-21T21:14:23.351Z,21.17
2022-11-21T21:16:50.483Z,20.73
2022-11-21T21:19:17.516Z,19.47
2022-11-21T21:21:44.042Z,20.50
2022-11-21T21:24:11.840Z,18.90
2022-11-21T21:26:42.882Z,19.43
2022-11-21T21:29:15.153Z,18.57
2022-11-21T21:31:47.160Z,18.10
2022-11-21T21:34:17.130Z,19.30
2022-11-21T21:36:43.662Z,18.67
2022-11-21T21:39:10.709Z,18.57
2022-11-21T21:41:39.977Z,18.63
2022-11-21T21:44:07.375Z,20.27
2022-11-21T21:46:34.418Z,20.23
2022-11-21T21:49:01.272Z,19.10
2022-11-21T21:51:30.059Z,18.63
2022-11-21T21:53:58.489Z,19.07
2022-11-21T21:56:27.399Z,18.67
2022-11-21T21:58:54.919Z,18.43
2022-11-21T22:01:29.888Z,18.70
2022-11-21T22:03:59.853Z,19.77
2022-11-21T22:06:27.291Z,19.27
2022-11-21T22:08:54.906Z,20.33
2022-11-21T22:11:26.972Z,19.93
2022-11-21T22:14:00.153Z,19.30
2022-11-21T22:16:28.453Z,20.17
2022-11-21T22:18:55.234Z,20.03
2022-11-21T22:21:24.791Z,19.77
2022-11-21T22:24:23.014Z,20.67
2022-11-21T22:26:38.196Z,20.53
2022-11-21T22:29:04.835Z,19.57
2022-11-21T22:31:32.436Z,20.60
2022-11-21T22:33:59.598Z,21.27
2022-11-21T22:36:26.223Z,20.43
2022-11-21T22:38:54.802Z,20.90
2022-11-21T22:41:23.585Z,20.23
2022-11-21T22:43:52.434Z,19.07
2022-11-21T22:46:20.447Z,19.50
2022-11-21T22:48:48.022Z,20.30
2022-11-21T22:51:20.056Z,21.90
2022-11-21T22:53:48.228Z,20.70
2022-11-21T22:56:16.451Z,20.87
2022-11-21T22:58:43.005Z,20.13
2022-11-21T23:01:12.865Z,20.47
2022-11-21T23:03:40.731Z,20.10
2022-11-21T23:06:10.327Z,20.57
2022-11-21T23:08:37.793Z,19.47
2022-11-21T23:11:05.612Z,20.60
2022-11-21T23:13:32.661Z,19.23
2022-11-21T23:15:59.393Z,19.67
2022-11-21T23:18:26.346Z,18.77
2022-11-21T23:20:52.948Z,19.93
2022-11-21T23:23:20.409Z,19.20
2022-11-21T23:25:47.351Z,19.10
2022-11-21T23:28:13.996Z,18.87
2022-11-21T23:30:40.515Z,18.63
2022-11-21T23:33:07.450Z,18.53
2022-11-21T23:35:33.994Z,18.37
2022-11-21T23:38:00.495Z,19.43
2022-11-21T23:40:27.093Z,20.23
2022-11-21T23:42:53.632Z,20.40
2022-11-21T23:45:20.245Z,20.23
2022-11-21T23:47:46.861Z,21.40
2022-11-21T23:50:13.655Z,20.40
2022-11-21T23:52:40.136Z,20.00
2022-11-21T23:55:07.113Z,20.90
2022-11-21T23:57:33.940Z,20.17
